Time;durP1;ratioP1;P1;durP2;ratioP2;P2;SDS_P1;SDS_P2;PMS_P1;PMS_P2;Temp;Humidity;BMP_temperature;BMP_pressure;BME280_temperature;BME280_humidity;BME280_pressure;Samples;Min_cycle;Max_cycle;Signal;HPM_P1;HPM_P2
2022/01/19 07:08:12;;;;;;;20.75;11.77;;;;;;;;;;6170893;23;20182;-77
2022/01/19 07:14:35;;;;;;;;;;;;;;;;;;;;;
2022/01/19 08:30:14;;;;;;;23.77;11.88;;;;;;;;;;6180664;22;20040;-82
2022/01/19 08:32:40;;;;;;;19.40;10.73;;;;;;;;;;6138042;22;20029;-82
2022/01/19 08:35:07;;;;;;;22.60;11.07;;;;;;;;;;6177451;22;20021;-83
2022/01/19 08:37:35;;;;;;;19.58;11.07;;;;;;;;;;6152069;22;20020;-83
2022/01/19 08:40:04;;;;;;;21.50;12.48;;;;;;;;;;6152299;22;20121;-83
2022/01/19 08:42:30;;;;;;;21.25;11.70;;;;;;;;;;6130769;22;20047;-83
2022/01/19 08:44:56;;;;;;;20.80;11.63;;;;;;;;;;6139903;22;20017;-82
2022/01/19 08:47:24;;;;;;;23.00;11.85;;;;;;;;;;6132150;22;20025;-83
2022/01/19 08:49:50;;;;;;;20.20;11.80;;;;;;;;;;6140150;22;20013;-82
2022/01/19 08:52:16;;;;;;;17.42;10.20;;;;;;;;;;6178013;22;20025;-83
2022/01/19 08:54:45;;;;;;;15.55;10.30;;;;;;;;;;6150996;22;20072;-83
2022/01/19 08:57:10;;;;;;;15.93;10.80;;;;;;;;;;6151689;22;20025;-83
2022/01/19 08:59:36;;;;;;;17.55;10.63;;;;;;;;;;6155164;22;20028;-83
2022/01/19 09:02:02;;;;;;;16.02;10.57;;;;;;;;;;6180281;22;20067;-83
2022/01/19 09:04:29;;;;;;;18.52;10.23;;;;;;;;;;6154280;22;20013;-83
2022/01/19 12:02:46;;;;;;;26.95;17.92;;;;;;;;;;6159305;22;20021;-85
2022/01/19 12:05:19;;;;;;;23.42;18.10;;;;;;;;;;6178901;22;20622;-85
2022/01/19 12:08:21;;;;;;;25.10;17.58;;;;;;;;;;6145935;22;20021;-86
2022/01/19 12:10:50;;;;;;;25.85;17.30;;;;;;;;;;6176121;22;20021;-85
2022/01/19 12:19:08;;;;;;;29.98;20.88;;;;;;;;;;6167725;22;20075;-84
2022/01/19 12:42:54;;;;;;;28.88;18.10;;;;;;;;;;6091784;23;20080;-86
2022/01/19 12:49:50;;;;;;;25.27;17.58;;;;;;;;;;6029611;23;20042;-84
2022/01/19 15:06:44;;;;;;;15.38;9.73;;;;;;;;;;6269380;22;20085;-78
2022/01/19 15:20:43;;;;;;;9.82;8.93;;;;;;;;;;6257066;22;20016;-78
2022/01/19 15:23:21;;;;;;;9.27;8.38;;;;;;;;;;6159758;23;20020;-77
2022/01/19 15:26:34;;;;;;;;;;;;;;;;;;;;;
2022/01/19 15:29:20;;;;;;;9.50;8.18;;;;;;;;;;6109228;23;20089;-77
2022/01/19 15:32:33;;;;;;;10.48;9.20;;;;;;;;;;6084397;23;20018;-78
2022/01/19 16:12:50;;;;;;;8.82;7.78;;;;;;;;;;6154007;23;20110;-78
2022/01/19 16:19:11;;;;;;;9.50;7.07;;;;;;;;;;6123166;23;20103;-78
2022/01/19 16:39:03;;;;;;;10.23;9.23;;;;;;;;;;6222922;22;20203;-78
2022/01/19 16:42:07;;;;;;;9.23;8.23;;;;;;;;;;6010915;23;20019;-78
2022/01/19 16:45:09;;;;;;;;;;;;;;;;;;;;;
2022/01/19 16:48:07;;;;;;;10.02;8.68;;;;;;;;;;6025482;23;20105;-78
2022/01/19 16:51:17;;;;;;;10.02;8.63;;;;;;;;;;6013009;23;20105;-79
2022/01/19 16:54:16;;;;;;;14.00;11.07;;;;;;;;;;5936427;23;20028;-77
2022/01/19 16:56:42;;;;;;;24.67;16.02;;;;;;;;;;6027441;23;20119;-76
2022/01/19 16:59:11;;;;;;;24.50;16.48;;;;;;;;;;6195888;22;20090;-78
2022/01/19 17:01:37;;;;;;;14.88;10.10;;;;;;;;;;6223384;22;20019;-77
2022/01/19 17:04:05;;;;;;;9.80;8.80;;;;;;;;;;6229597;22;20018;-77
2022/01/19 17:06:31;;;;;;;10.73;9.07;;;;;;;;;;6240620;22;20473;-77
2022/01/19 17:08:57;;;;;;;11.50;8.98;;;;;;;;;;6242829;22;20023;-77
2022/01/19 17:11:22;;;;;;;9.75;8.57;;;;;;;;;;6233352;22;20567;-77
2022/01/19 17:14:33;;;;;;;11.98;9.32;;;;;;;;;;6243394;22;20019;-77
2022/01/19 17:17:11;;;;;;;11.02;9.43;;;;;;;;;;6166044;22;20021;-77
2022/01/19 17:19:53;;;;;;;11.77;9.13;;;;;;;;;;6176322;22;20023;-77
2022/01/19 17:22:26;;;;;;;10.00;8.30;;;;;;;;;;6172224;22;20027;-77
2022/01/19 17:24:52;;;;;;;11.85;9.50;;;;;;;;;;6199816;22;20439;-79
2022/01/19 17:27:28;;;;;;;11.60;9.18;;;;;;;;;;6239872;22;20460;-76
2022/01/19 17:30:53;;;;;;;10.88;8.32;;;;;;;;;;6166787;22;20259;-76
2022/01/19 17:37:09;;;;;;;14.77;9.65;;;;;;;;;;6092714;23;20021;-78
2022/01/19 18:04:46;;;;;;;16.25;9.13;;;;;;;;;;5980163;23;20032;-77
2022/01/19 18:07:33;;;;;;;10.88;8.38;;;;;;;;;;5964905;23;20034;-77
2022/01/19 18:10:30;;;;;;;;;;;;;;;;;;5909716;24;20095;-77
2022/01/19 18:17:04;;;;;;;;;;;;;;;;;;;;;
2022/01/19 18:20:29;;;;;;;12.57;9.38;;;;;;;;;;5972826;23;20402;-76
2022/01/19 18:29:49;;;;;;;12.93;10.80;;;;;;;;;;6064651;23;20552;-77
2022/01/19 18:32:37;;;;;;;13.00;10.75;;;;;;;;;;6109867;23;20537;-77
2022/01/19 18:35:43;;;;;;;12.52;9.50;;;;;;;;;;6145717;23;20387;-76
2022/01/19 18:38:32;;;;;;;;;;;;;;;;;;;;;
2022/01/19 18:41:10;;;;;;;13.95;10.50;;;;;;;;;;6133694;23;20293;-77
2022/01/19 19:14:42;;;;;;;14.80;11.77;;;;;;;;;;6273235;22;20368;-78
2022/01/19 19:21:14;;;;;;;15.95;10.60;;;;;;;;;;6264091;22;20065;-77
2022/01/19 19:23:42;;;;;;;14.50;11.02;;;;;;;;;;6264632;22;20016;-76
2022/01/19 19:26:54;;;;;;;12.60;11.30;;;;;;;;;;6211945;22;20525;-77
2022/01/19 19:32:16;;;;;;;14.70;12.27;;;;;;;;;;6219265;22;20050;-77
2022/01/19 19:34:44;;;;;;;14.02;11.93;;;;;;;;;;6242924;22;20091;-77
2022/01/19 19:37:10;;;;;;;15.50;11.73;;;;;;;;;;6234049;22;20403;-77
2022/01/19 19:39:59;;;;;;;16.67;12.93;;;;;;;;;;6242236;22;20015;-76
2022/01/19 19:42:25;;;;;;;18.98;13.48;;;;;;;;;;6266269;22;20111;-79
2022/01/19 19:44:51;;;;;;;15.65;12.00;;;;;;;;;;6220858;22;20016;-77
2022/01/19 19:47:20;;;;;;;13.88;10.43;;;;;;;;;;6243071;22;20008;-77
2022/01/19 19:49:48;;;;;;;13.77;9.65;;;;;;;;;;6228059;22;20495;-76
2022/01/19 19:52:18;;;;;;;16.88;12.10;;;;;;;;;;6208685;22;20392;-76
2022/01/19 19:54:44;;;;;;;15.48;12.63;;;;;;;;;;6197362;22;20015;-77
2022/01/19 19:57:10;;;;;;;15.52;11.90;;;;;;;;;;6241479;22;20069;-76
2022/01/19 20:00:09;;;;;;;15.98;11.85;;;;;;;;;;6238059;22;20024;-76
2022/01/19 20:02:35;;;;;;;14.88;11.85;;;;;;;;;;6248363;22;20054;-76
2022/01/19 20:05:04;;;;;;;15.32;11.10;;;;;;;;;;6265509;22;20016;-75
2022/01/19 20:07:30;;;;;;;17.67;13.25;;;;;;;;;;6222923;22;20026;-76
2022/01/19 20:09:56;;;;;;;16.42;12.50;;;;;;;;;;6267978;22;20019;-76
2022/01/19 20:12:21;;;;;;;17.30;13.05;;;;;;;;;;6268789;22;20020;-75
2022/01/19 20:14:47;;;;;;;15.05;10.30;;;;;;;;;;6268326;22;20457;-76
2022/01/19 20:17:16;;;;;;;15.77;12.70;;;;;;;;;;6267876;22;20016;-76
2022/01/19 20:19:47;;;;;;;19.20;13.52;;;;;;;;;;6265114;22;20095;-76
2022/01/19 20:22:13;;;;;;;14.48;12.13;;;;;;;;;;6241322;22;20046;-76
2022/01/19 20:24:41;;;;;;;16.23;12.10;;;;;;;;;;6238592;22;20016;-76
2022/01/19 20:27:21;;;;;;;18.50;13.27;;;;;;;;;;6251922;22;20016;-75
2022/01/19 20:29:47;;;;;;;19.75;13.48;;;;;;;;;;6229896;22;20457;-77
2022/01/19 20:32:17;;;;;;;17.20;12.85;;;;;;;;;;6207965;22;20089;-76
2022/01/19 20:34:44;;;;;;;15.82;13.70;;;;;;;;;;6223960;22;20552;-76
2022/01/19 20:37:09;;;;;;;19.80;14.15;;;;;;;;;;6198807;22;20080;-75
2022/01/19 20:39:35;;;;;;;18.17;13.75;;;;;;;;;;6193720;22;20095;-75
2022/01/19 20:42:01;;;;;;;19.17;13.45;;;;;;;;;;6211179;22;20012;-75
2022/01/19 20:44:33;;;;;;;19.80;13.90;;;;;;;;;;6203466;22;20455;-76
2022/01/19 21:04:04;;;;;;;17.45;10.52;;;;;;;;;;6087391;23;20025;-75
2022/01/19 21:07:18;;;;;;;17.35;13.02;;;;;;;;;;6168008;23;20020;-76
2022/01/19 21:10:13;;;;;;;18.25;13.63;;;;;;;;;;6179746;23;20043;-75
2022/01/19 21:12:41;;;;;;;16.52;10.18;;;;;;;;;;6234399;22;20024;-75
2022/01/19 21:15:17;;;;;;;19.42;13.13;;;;;;;;;;6206382;22;20635;-75
2022/01/19 21:17:43;;;;;;;19.30;14.25;;;;;;;;;;6225716;22;20019;-76
2022/01/19 21:20:42;;;;;;;21.02;13.65;;;;;;;;;;6225216;22;20019;-76
2022/01/19 21:23:48;;;;;;;20.15;14.93;;;;;;;;;;6172017;23;20162;-76
2022/01/19 21:26:24;;;;;;;16.70;12.65;;;;;;;;;;6059695;23;20018;-76
2022/01/19 21:29:06;;;;;;;;;;;;;;;;;;6062787;23;20022;-75
2022/01/19 21:31:57;;;;;;;18.75;12.90;;;;;;;;;;6081356;23;19940;-75
2022/01/19 21:34:26;;;;;;;23.48;15.57;;;;;;;;;;6155038;23;20021;-75
2022/01/19 21:36:57;;;;;;;20.00;15.20;;;;;;;;;;6153309;23;20020;-75
2022/01/19 21:40:03;;;;;;;21.70;14.30;;;;;;;;;;6228452;23;20028;-75
